Time;durP1;ratioP1;P1;durP2;ratioP2;P2;SDS_P1;SDS_P2;PMS_P1;PMS_P2;Temp;Humidity;BMP_temperature;BMP_pressure;BME280_temperature;BME280_humidity;BME280_pressure;Samples;Min_cycle;Max_cycle;Signal;HPM_P1;HPM_P2
2024/04/11 00:02:24;;;;;;;4.83;3.33;;;;;;;10.60;73.65;102131.09;5489132;26;20290;-78
2024/04/11 00:04:49;;;;;;;4.73;3.67;;;;;;;10.53;74.37;102136.28;5489227;26;20777;-78
2024/04/11 00:07:17;;;;;;;4.80;4.03;;;;;;;10.46;74.48;102134.44;5489959;26;20231;-78
2024/04/11 00:09:43;;;;;;;3.80;3.30;;;;;;;10.54;73.78;102129.31;5474024;26;20238;-78
2024/04/11 00:12:11;;;;;;;4.07;3.53;;;;;;;10.56;74.02;102131.94;5489139;26;20275;-78
2024/04/11 00:14:36;;;;;;;5.43;3.57;;;;;;;10.59;74.29;102139.81;5489470;26;20680;-79
2024/04/11 00:17:07;;;;;;;4.43;3.00;;;;;;;10.58;74.45;102127.59;5490546;26;20232;-79
2024/04/11 00:19:35;;;;;;;4.53;3.00;;;;;;;10.56;73.88;102127.56;5489969;26;20282;-77
2024/04/11 00:22:05;;;;;;;6.33;3.30;;;;;;;10.58;73.90;102144.13;5491514;26;20240;-79
2024/04/11 00:24:30;;;;;;;4.33;3.10;;;;;;;10.58;73.35;102138.91;5489118;26;20236;-79
2024/04/11 00:26:58;;;;;;;3.30;3.03;;;;;;;10.42;73.69;102145.72;5488368;26;20795;-78
2024/04/11 00:29:23;;;;;;;3.63;3.10;;;;;;;10.53;72.32;102179.78;5488898;26;20241;-78
2024/04/11 00:31:51;;;;;;;4.13;3.27;;;;;;;10.52;73.74;102170.19;5489254;26;20360;-79
2024/04/11 00:34:23;;;;;;;5.57;3.10;;;;;;;10.58;73.93;102146.75;5489104;26;20240;-79
2024/04/11 00:36:53;;;;;;;3.60;2.80;;;;;;;10.58;73.87;102149.34;5490109;26;20338;-79
2024/04/11 00:39:20;;;;;;;4.27;2.90;;;;;;;10.59;74.32;102132.84;5490277;26;20799;-78
2024/04/11 00:41:49;;;;;;;3.93;2.97;;;;;;;10.54;74.45;102131.91;5488686;26;20233;-79
2024/04/11 00:44:16;;;;;;;3.63;3.07;;;;;;;10.49;74.49;102121.44;5490023;26;20612;-78
2024/04/11 00:46:45;;;;;;;3.27;3.00;;;;;;;10.50;74.46;102122.31;5488873;26;20235;-79
2024/04/11 00:49:11;;;;;;;4.13;3.37;;;;;;;10.46;74.76;102121.41;5490699;26;20734;-79
2024/04/11 00:51:42;;;;;;;4.80;2.93;;;;;;;10.47;74.64;102109.25;5490369;26;20274;-78
2024/04/11 00:54:08;;;;;;;2.80;2.30;;;;;;;10.36;74.25;102119.56;5490485;26;20234;-79
2024/04/11 00:56:40;;;;;;;3.30;3.00;;;;;;;10.38;74.52;102114.38;5489562;26;20270;-78
2024/04/11 00:59:05;;;;;;;3.83;3.03;;;;;;;10.37;75.04;102108.28;5489144;26;20265;-77
2024/04/11 01:01:33;;;;;;;3.43;3.13;;;;;;;10.29;74.53;102108.19;5488387;26;20239;-78
2024/04/11 01:04:00;;;;;;;3.37;3.07;;;;;;;10.28;73.87;102121.22;5488605;26;20612;-79
2024/04/11 01:06:28;;;;;;;6.93;3.40;;;;;;;10.29;74.10;102123.84;5490002;26;20266;-78
2024/04/11 01:08:58;;;;;;;4.90;2.90;;;;;;;10.34;74.04;102126.53;5489510;26;20553;-79
2024/04/11 01:11:26;;;;;;;3.10;2.90;;;;;;;10.32;73.80;102125.63;5489362;26;20841;-78
2024/04/11 01:13:52;;;;;;;3.90;3.10;;;;;;;10.29;74.59;102130.81;5488558;26;20272;-79
2024/04/11 01:16:20;;;;;;;4.23;3.00;;;;;;;10.32;74.42;102125.63;5490025;26;20727;-80
2024/04/11 01:18:45;;;;;;;4.57;2.90;;;;;;;10.28;74.10;102131.66;5488441;26;20258;-78
2024/04/11 01:21:15;;;;;;;4.03;2.90;;;;;;;10.29;73.69;102133.41;5487912;26;20238;-78
2024/04/11 01:23:43;;;;;;;4.10;2.63;;;;;;;10.29;73.67;102136.03;5487374;26;20249;-77
2024/04/11 01:26:11;;;;;;;2.83;2.57;;;;;;;10.31;74.05;102136.94;5488232;26;20342;-78
2024/04/11 01:28:36;;;;;;;3.40;2.50;;;;;;;10.25;73.80;102129.91;5488926;26;20228;-78
2024/04/11 01:31:04;;;;;;;4.00;3.57;;;;;;;10.21;73.78;102120.28;5487507;26;20293;-78
2024/04/11 01:33:30;;;;;;;3.47;2.80;;;;;;;10.16;74.66;102110.66;5487933;26;20270;-79
2024/04/11 01:35:59;;;;;;;2.93;2.50;;;;;;;10.15;74.85;102099.34;5488381;26;20269;-78
2024/04/11 01:38:25;;;;;;;3.13;2.60;;;;;;;10.12;74.57;102092.34;5490135;26;20266;-77
2024/04/11 01:40:56;;;;;;;4.03;3.00;;;;;;;10.06;74.40;102094.03;5489062;26;20267;-77
2024/04/11 01:43:21;;;;;;;2.97;2.77;;;;;;;10.06;74.75;102101.88;5490701;26;20262;-78
2024/04/11 01:45:49;;;;;;;3.60;3.30;;;;;;;9.99;75.21;102089.59;5470213;26;20624;-78
2024/04/11 01:48:14;;;;;;;3.30;2.80;;;;;;;9.98;75.32;102075.69;5452178;26;20233;-79
2024/04/11 01:50:43;;;;;;;3.20;2.90;;;;;;;10.02;74.86;102080.09;5452309;26;20280;-77
2024/04/11 01:53:08;;;;;;;4.00;3.27;;;;;;;10.06;75.11;102088.81;5452297;26;20240;-78
2024/04/11 01:55:36;;;;;;;4.03;2.90;;;;;;;10.05;75.29;102077.53;5450096;26;20249;-79
2024/04/11 01:58:05;;;;;;;5.33;3.03;;;;;;;10.05;75.58;102072.31;5474272;26;20342;-78
2024/04/11 02:00:36;;;;;;;3.80;2.77;;;;;;;10.02;75.19;102074.88;5487726;26;20276;-78
2024/04/11 02:03:04;;;;;;;3.27;2.97;;;;;;;10.00;75.79;102067.91;5486777;26;20226;-79
2024/04/11 02:05:34;;;;;;;3.97;3.57;;;;;;;9.93;76.25;102061.75;5488240;26;20245;-78
2024/04/11 02:08:01;;;;;;;3.77;3.07;;;;;;;9.88;75.83;102056.47;5487576;26;20608;-79
2024/04/11 02:10:29;;;;;;;3.63;3.20;;;;;;;9.83;75.78;102050.34;5487498;26;20621;-78
2024/04/11 02:12:56;;;;;;;3.53;2.73;;;;;;;9.75;75.41;102038.94;5487626;26;20292;-79
2024/04/11 02:15:27;;;;;;;2.83;2.57;;;;;;;9.78;75.01;102057.25;5488083;26;20294;-78
2024/04/11 02:17:53;;;;;;;3.23;2.93;;;;;;;9.79;75.12;102056.41;5487287;26;20275;-80
2024/04/11 02:20:20;;;;;;;3.77;3.03;;;;;;;9.80;74.39;102079.00;5486670;26;20240;-78
2024/04/11 02:22:46;;;;;;;4.80;2.50;;;;;;;9.80;74.13;102086.81;5484938;26;20277;-78
2024/04/11 02:25:14;;;;;;;3.23;2.70;;;;;;;9.81;74.50;102088.59;5473265;26;20718;-78
2024/04/11 02:27:40;;;;;;;4.10;3.20;;;;;;;9.86;71.89;102106.88;5486784;26;20237;-78
2024/04/11 02:30:09;;;;;;;4.40;2.87;;;;;;;9.97;72.72;102122.63;5488363;26;20270;-78
2024/04/11 02:32:41;;;;;;;2.77;2.57;;;;;;;9.98;73.01;102134.84;5486666;26;20262;-78
2024/04/11 02:35:11;;;;;;;3.23;2.73;;;;;;;9.99;73.55;102134.84;5490485;26;20323;-79
2024/04/11 02:37:37;;;;;;;5.17;3.47;;;;;;;10.01;73.78;102127.03;5491801;26;20229;-79
2024/04/11 02:40:07;;;;;;;2.70;2.37;;;;;;;9.98;73.02;102137.44;5490470;26;20283;-78
2024/04/11 02:42:33;;;;;;;2.73;2.50;;;;;;;9.97;73.70;102135.69;5491763;26;20695;-78
2024/04/11 02:45:02;;;;;;;7.03;2.73;;;;;;;9.99;73.45;102131.34;5491160;26;20239;-78
2024/04/11 02:47:27;;;;;;;2.80;2.53;;;;;;;10.02;73.41;102144.44;5491018;26;20274;-77
2024/04/11 02:49:58;;;;;;;8.10;2.77;;;;;;;9.91;71.21;102171.28;5490188;26;20239;-78
2024/04/11 02:52:24;;;;;;;3.23;2.60;;;;;;;9.93;73.58;102172.19;5492877;26;20289;-79
2024/04/11 02:54:52;;;;;;;2.80;2.33;;;;;;;9.93;73.42;102168.69;5489185;26;20780;-77
2024/04/11 02:57:18;;;;;;;3.57;2.70;;;;;;;9.95;72.85;102174.81;5490628;26;20274;-78
2024/04/11 02:59:47;;;;;;;2.97;2.63;;;;;;;9.90;73.90;102159.09;5489732;26;20237;-78
2024/04/11 03:02:13;;;;;;;3.80;3.03;;;;;;;9.87;74.57;102138.19;5476306;26;20229;-79
2024/04/11 03:04:43;;;;;;;3.07;2.47;;;;;;;9.91;73.24;102139.97;5491145;26;20311;-78
2024/04/11 03:07:11;;;;;;;4.90;3.10;;;;;;;9.91;72.69;102155.63;5490388;26;20231;-78
2024/04/11 03:09:39;;;;;;;3.33;3.00;;;;;;;9.91;73.52;102144.31;5490301;26;20248;-78
2024/04/11 03:12:07;;;;;;;4.10;2.50;;;;;;;9.83;72.64;102152.06;5491014;26;20233;-79
2024/04/11 03:14:32;;;;;;;3.87;2.27;;;;;;;9.80;73.94;102145.94;5491534;26;20232;-78
2024/04/11 03:17:00;;;;;;;2.77;2.53;;;;;;;9.71;69.95;102178.88;5489591;26;20286;-79
2024/04/11 03:19:26;;;;;;;2.77;2.57;;;;;;;9.80;72.16;102188.53;5489557;26;20316;-78
2024/04/11 03:21:54;;;;;;;4.47;2.53;;;;;;;9.91;71.11;102199.97;5490138;26;20235;-77
2024/04/11 03:24:22;;;;;;;3.03;2.00;;;;;;;9.84;67.75;102228.56;5490351;26;20616;-79
2024/04/11 03:26:50;;;;;;;3.30;2.20;;;;;;;9.89;69.74;102259.09;5489173;26;20273;-78
2024/04/11 03:29:16;;;;;;;2.43;2.23;;;;;;;10.03;67.79;102284.44;5477323;26;20232;-78
2024/04/11 03:31:44;;;;;;;3.83;2.40;;;;;;;10.09;67.73;102298.47;5489609;26;20286;-78
2024/04/11 03:34:10;;;;;;;2.67;2.20;;;;;;;10.14;67.96;102306.34;5453231;26;20234;-78
2024/04/11 03:36:38;;;;;;;3.30;2.00;;;;;;;10.08;67.62;102321.94;5454680;26;20270;-78
2024/04/11 03:39:11;;;;;;;5.37;2.37;;;;;;;9.87;68.60;102317.28;5453700;26;20292;-77
2024/04/11 03:41:44;;;;;;;2.67;2.00;;;;;;;9.91;68.47;102303.41;5489063;26;20660;-78
2024/04/11 03:44:12;;;;;;;2.40;2.20;;;;;;;10.00;68.44;102303.56;5488965;26;20780;-78
2024/04/11 03:46:41;;;;;;;2.93;2.20;;;;;;;10.08;67.59;102314.09;5491067;26;20228;-78
2024/04/11 03:49:07;;;;;;;2.83;2.07;;;;;;;10.05;66.19;102328.00;5489337;26;20596;-78
2024/04/11 03:51:38;;;;;;;3.07;1.80;;;;;;;10.07;65.86;102346.28;5489403;26;20332;-78
2024/04/11 03:54:05;;;;;;;2.70;2.03;;;;;;;10.17;65.76;102365.53;5455800;26;20248;-79
2024/04/11 03:56:34;;;;;;;4.90;2.23;;;;;;;10.23;67.05;102370.84;5462185;26;20639;-78
2024/04/11 03:59:03;;;;;;;2.37;2.10;;;;;;;10.17;64.32;102373.34;5453418;26;20276;-76
2024/04/11 04:01:32;;;;;;;2.07;1.87;;;;;;;10.15;64.79;102404.66;5452086;26;20239;-78
2024/04/11 04:04:01;;;;;;;2.70;2.17;;;;;;;10.29;66.36;102386.59;5452293;26;20298;-78
2024/04/11 04:06:29;;;;;;;2.63;1.80;;;;;;;10.36;64.30;102392.81;5464322;26;20239;-78
2024/04/11 04:08:54;;;;;;;2.73;2.00;;;;;;;10.35;65.55;102402.38;5488490;26;20233;-78
2024/04/11 04:11:23;;;;;;;2.73;1.60;;;;;;;10.35;65.72;102399.75;5488438;26;20728;-78
2024/04/11 04:13:50;;;;;;;1.77;1.63;;;;;;;10.21;67.54;102386.50;5490171;26;20637;-78
2024/04/11 04:16:22;;;;;;;3.33;2.10;;;;;;;10.16;67.32;102361.19;5487999;26;20241;-77
2024/04/11 04:18:50;;;;;;;2.37;1.97;;;;;;;10.10;66.66;102351.53;5472813;26;20275;-77
2024/04/11 04:21:20;;;;;;;2.47;1.83;;;;;;;10.18;65.76;102372.50;5488032;26;20310;-79
2024/04/11 04:23:48;;;;;;;1.83;1.70;;;;;;;10.27;66.94;102375.25;5487735;26;20309;-78
2024/04/11 04:26:20;;;;;;;1.87;1.77;;;;;;;10.29;67.50;102357.88;5487958;26;20575;-79
2024/04/11 04:28:45;;;;;;;1.90;1.80;;;;;;;10.22;67.28;102363.88;5490554;26;20373;-78
2024/04/11 04:31:16;;;;;;;2.53;1.83;;;;;;;10.29;66.86;102365.72;5487922;26;20248;-78
2024/04/11 04:33:47;;;;;;;1.87;1.67;;;;;;;10.18;69.21;102334.22;5488836;26;20234;-78
2024/04/11 04:36:16;;;;;;;3.43;2.27;;;;;;;10.17;67.62;102315.94;5488642;26;20361;-78
2024/04/11 04:38:44;;;;;;;2.20;2.00;;;;;;;10.16;69.53;102309.84;5489483;26;20361;-78
2024/04/11 04:41:13;;;;;;;2.83;1.80;;;;;;;10.21;66.91;102313.41;5486605;26;20236;-78
2024/04/11 04:43:39;;;;;;;4.20;3.00;;;;;;;10.21;67.46;102334.28;5488225;26;20224;-78
2024/04/11 04:46:08;;;;;;;3.80;1.93;;;;;;;10.17;68.97;102311.63;5488740;26;21071;-78
2024/04/11 04:48:34;;;;;;;2.10;1.90;;;;;;;10.22;68.92;102311.66;5489283;26;20270;-78
2024/04/11 04:51:05;;;;;;;2.00;1.73;;;;;;;10.30;67.31;102297.88;5488529;26;21087;-78
2024/04/11 04:53:30;;;;;;;5.90;2.37;;;;;;;10.32;67.14;102324.00;5478096;26;20236;-78
2024/04/11 04:55:58;;;;;;;2.60;1.70;;;;;;;10.26;68.36;102332.59;5482689;26;20649;-78
2024/04/11 04:58:26;;;;;;;2.23;1.90;;;;;;;10.15;70.41;102300.28;5488388;26;20227;-79
2024/04/11 05:00:54;;;;;;;3.30;2.00;;;;;;;10.21;68.94;102269.03;5487011;26;20293;-79
2024/04/11 05:03:19;;;;;;;3.87;1.97;;;;;;;9.99;67.67;102280.94;5489183;26;20226;-78
2024/04/11 05:05:48;;;;;;;2.83;1.70;;;;;;;10.12;69.02;102284.56;5488640;26;20785;-78
2024/04/11 05:08:16;;;;;;;3.80;2.00;;;;;;;10.17;71.45;102262.03;5488497;26;20569;-79
2024/04/11 05:10:55;;;;;;;2.07;1.70;;;;;;;10.22;70.78;102246.44;5487398;26;20786;-79
2024/04/11 05:13:26;;;;;;;2.00;1.80;;;;;;;10.27;71.89;102221.28;5486663;26;20234;-79
2024/04/11 05:16:01;;;;;;;2.23;1.73;;;;;;;10.33;70.98;102183.06;5488529;26;20230;-78
2024/04/11 05:18:27;;;;;;;3.23;1.90;;;;;;;10.31;72.03;102184.81;5486782;26;20238;-80
2024/04/11 05:20:56;;;;;;;2.87;2.00;;;;;;;10.38;69.85;102192.69;5462731;26;20307;-80
2024/04/11 05:23:32;;;;;;;1.93;1.80;;;;;;;10.44;70.33;102196.22;5453718;26;20238;-80
2024/04/11 05:26:07;;;;;;;2.17;1.73;;;;;;;10.43;67.83;102204.94;5454145;26;20728;-80
2024/04/11 05:28:35;;;;;;;2.63;1.50;;;;;;;10.53;66.98;102243.31;5455079;26;20268;-80
2024/04/11 05:31:04;;;;;;;2.80;1.50;;;;;;;10.60;65.66;102269.50;5453180;26;20840;-78
2024/04/11 05:33:32;;;;;;;3.33;1.97;;;;;;;10.70;64.84;102300.06;5454050;26;20681;-81
2024/04/11 05:36:00;;;;;;;2.27;1.57;;;;;;;10.80;65.11;102314.09;5453364;26;20238;-82
2024/04/11 05:38:28;;;;;;;1.67;1.43;;;;;;;10.81;64.04;102336.78;5454102;26;20230;-79
2024/04/11 05:40:56;;;;;;;4.90;2.33;;;;;;;10.83;62.45;102362.03;5451489;26;20337;-78
2024/04/11 05:43:22;;;;;;;3.63;1.73;;;;;;;10.89;61.23;102383.00;5459682;26;20229;-80
2024/04/11 05:45:50;;;;;;;1.53;1.30;;;;;;;11.02;61.95;102418.00;5489258;26;20235;-79
2024/04/11 05:48:15;;;;;;;2.70;1.50;;;;;;;10.82;62.65;102433.44;5489728;26;20230;-79
2024/04/11 05:50:44;;;;;;;3.77;2.00;;;;;;;10.91;61.48;102436.16;5488833;26;20279;-78
2024/04/11 05:53:09;;;;;;;1.53;1.20;;;;;;;10.99;61.10;102458.91;5488792;26;20581;-79
2024/04/11 05:55:40;;;;;;;2.40;1.43;;;;;;;11.07;59.69;102488.59;5488062;26;20292;-77
2024/04/11 05:58:05;;;;;;;3.27;1.33;;;;;;;11.19;58.49;102514.03;5474425;26;20290;-78
2024/04/11 06:00:33;;;;;;;4.00;1.43;;;;;;;11.19;57.29;102535.81;5489143;26;20731;-78
2024/04/11 06:03:08;;;;;;;2.33;1.33;;;;;;;11.32;56.43;102579.53;5491068;26;20233;-79
2024/04/11 06:05:36;;;;;;;2.43;1.20;;;;;;;11.41;56.57;102606.66;5492263;26;20228;-79
2024/04/11 06:08:02;;;;;;;2.40;1.10;;;;;;;11.46;55.26;102644.22;5493637;26;20233;-79
2024/04/11 06:10:30;;;;;;;1.93;1.37;;;;;;;11.62;54.47;102677.56;5493132;26;20277;-77
2024/04/11 06:12:58;;;;;;;3.80;1.43;;;;;;;11.62;54.51;102705.47;5490913;26;20231;-77
2024/04/11 06:15:26;;;;;;;3.03;1.00;;;;;;;11.76;54.77;102721.34;5491291;26;20232;-76
2024/04/11 06:17:52;;;;;;;3.00;1.40;;;;;;;11.89;54.65;102729.41;5491033;26;20259;-76
2024/04/11 06:20:24;;;;;;;1.47;0.90;;;;;;;11.91;53.92;102743.38;5490395;26;20238;-76
2024/04/11 06:22:52;;;;;;;3.90;1.57;;;;;;;11.68;53.13;102792.75;5491077;26;20779;-76
2024/04/11 06:25:20;;;;;;;1.57;1.10;;;;;;;11.88;54.41;102793.03;5494108;26;20333;-79
2024/04/11 06:27:45;;;;;;;2.77;1.27;;;;;;;11.87;54.08;102788.66;5495634;26;20753;-79
2024/04/11 06:30:19;;;;;;;2.03;1.30;;;;;;;11.82;54.56;102803.41;5494622;26;20283;-79
2024/04/11 06:32:46;;;;;;;2.57;1.33;;;;;;;11.78;54.60;102788.53;5495969;26;20232;-79
2024/04/11 06:35:14;;;;;;;2.27;1.37;;;;;;;11.68;54.63;102790.13;5480218;26;20841;-79
2024/04/11 06:37:44;;;;;;;2.13;1.10;;;;;;;12.00;55.46;102776.63;5495204;26;20229;-79
2024/04/11 06:40:14;;;;;;;6.40;1.30;;;;;;;11.74;53.94;102765.78;5494382;26;20286;-78
2024/04/11 06:42:46;;;;;;;5.03;1.30;;;;;;;11.83;54.76;102767.63;5495597;26;20237;-79
2024/04/11 06:45:21;;;;;;;1.60;1.10;;;;;;;11.88;55.12;102766.84;5494974;26;20252;-79
2024/04/11 06:47:47;;;;;;;2.33;1.30;;;;;;;11.95;55.43;102757.38;5495698;26;20224;-78
2024/04/11 06:50:15;;;;;;;2.33;1.63;;;;;;;12.07;55.36;102743.53;5494598;26;20275;-79
2024/04/11 06:52:42;;;;;;;3.83;1.30;;;;;;;12.13;55.72;102743.66;5496065;26;20316;-79
2024/04/11 06:55:12;;;;;;;2.80;1.30;;;;;;;12.21;56.36;102721.03;5491708;26;21148;-78
2024/04/11 06:57:40;;;;;;;3.77;1.57;;;;;;;12.21;54.65;102728.00;5492348;26;20232;-78
2024/04/11 07:00:21;;;;;;;2.63;1.43;;;;;;;12.23;54.85;102723.66;5492736;26;20297;-79
2024/04/11 07:02:50;;;;;;;1.40;1.20;;;;;;;12.09;54.51;102734.88;5480661;26;20295;-77
2024/04/11 07:05:20;;;;;;;3.10;1.27;;;;;;;11.93;54.53;102746.00;5474835;26;20236;-78
2024/04/11 07:07:45;;;;;;;1.40;1.30;;;;;;;12.06;54.08;102753.16;5492504;26;20288;-79
2024/04/11 07:10:24;;;;;;;1.87;1.30;;;;;;;12.15;54.24;102752.41;5493220;26;20340;-79
2024/04/11 07:12:50;;;;;;;3.93;1.43;;;;;;;11.84;55.22;102774.66;5497488;26;20237;-79
2024/04/11 07:15:18;;;;;;;1.70;1.60;;;;;;;12.22;55.14;102745.47;5497037;26;20232;-79
2024/04/11 07:17:56;;;;;;;2.27;1.07;;;;;;;12.30;54.54;102756.91;5496657;26;20236;-79
2024/04/11 07:20:31;;;;;;;2.07;1.37;;;;;;;12.33;54.49;102775.28;5473810;26;20320;-79
2024/04/11 07:22:58;;;;;;;2.23;1.23;;;;;;;12.36;55.12;102779.69;5459315;26;20263;-79
2024/04/11 07:25:26;;;;;;;2.33;1.00;;;;;;;12.25;54.24;102780.44;5457460;26;20238;-79
2024/04/11 07:27:55;;;;;;;2.80;1.30;;;;;;;12.45;53.80;102780.66;5458699;26;20238;-78
2024/04/11 07:30:24;;;;;;;5.90;1.47;;;;;;;12.61;54.44;102784.31;5458131;26;20241;-78
2024/04/11 07:32:50;;;;;;;5.03;1.40;;;;;;;12.50;53.62;102789.44;5484908;26;20274;-79
2024/04/11 07:35:18;;;;;;;1.87;1.10;;;;;;;12.52;53.47;102808.66;5460355;26;20233;-79
2024/04/11 07:37:47;;;;;;;1.53;1.10;;;;;;;12.36;52.76;102811.97;5458329;26;20263;-80
2024/04/11 07:40:27;;;;;;;2.60;1.30;;;;;;;12.50;53.56;102820.88;5456852;26;20236;-80
2024/04/11 07:42:55;;;;;;;1.67;1.00;;;;;;;12.62;53.51;102825.38;5458590;26;20283;-79
2024/04/11 07:45:30;;;;;;;3.20;1.50;;;;;;;12.50;52.73;102843.56;5458143;26;20304;-80
2024/04/11 07:47:58;;;;;;;2.27;1.20;;;;;;;12.60;52.76;102850.69;5458351;26;20247;-79
2024/04/11 07:50:26;;;;;;;2.27;1.00;;;;;;;12.71;53.36;102848.19;5458075;26;20279;-79
2024/04/11 07:52:57;;;;;;;1.70;1.00;;;;;;;12.58;52.38;102867.25;5458761;26;20248;-81
2024/04/11 07:55:25;;;;;;;3.67;1.30;;;;;;;12.79;52.83;102870.13;5487168;26;20240;-79
2024/04/11 07:57:51;;;;;;;2.67;1.20;;;;;;;12.84;52.67;102878.94;5458764;26;20275;-79
2024/04/11 08:00:27;;;;;;;3.53;1.50;;;;;;;12.80;52.66;102882.34;5457746;26;20620;-79
2024/04/11 08:02:56;;;;;;;3.33;1.37;;;;;;;12.87;52.67;102872.84;5459581;26;20236;-80
2024/04/11 08:05:24;;;;;;;3.23;1.50;;;;;;;12.88;52.80;102883.34;5459880;26;20280;-80
2024/04/11 08:07:51;;;;;;;3.90;1.10;;;;;;;12.87;52.84;102889.44;5457984;26;20269;-82
2024/04/11 08:10:27;;;;;;;3.87;1.20;;;;;;;12.94;53.04;102890.38;5457923;26;20291;-80
2024/04/11 08:12:52;;;;;;;2.10;1.30;;;;;;;12.91;53.22;102892.97;5486386;26;20318;-78
2024/04/11 08:15:25;;;;;;;3.20;1.20;;;;;;;12.80;52.73;102889.34;5492933;26;20233;-79
2024/04/11 08:17:51;;;;;;;2.30;1.10;;;;;;;13.12;53.16;102876.56;5495636;26;20237;-81
2024/04/11 08:20:20;;;;;;;2.43;1.33;;;;;;;13.16;53.40;102877.47;5494946;26;20252;-80
2024/04/11 08:22:46;;;;;;;1.77;1.10;;;;;;;13.20;53.17;102881.88;5495928;26;20228;-79
2024/04/11 08:25:15;;;;;;;2.87;1.20;;;;;;;13.12;52.29;102884.44;5478173;26;20990;-79
2024/04/11 08:27:45;;;;;;;3.27;1.50;;;;;;;13.22;53.68;102885.41;5497586;26;20236;-80
2024/04/11 08:30:15;;;;;;;3.20;1.30;;;;;;;13.31;53.97;102875.03;5492822;26;20584;-81
2024/04/11 08:32:45;;;;;;;3.50;1.47;;;;;;;13.29;52.93;102872.38;5498721;26;20245;-81
2024/04/11 08:35:13;;;;;;;3.80;1.50;;;;;;;13.44;54.14;102874.28;5494651;26;20270;-81
2024/04/11 08:37:39;;;;;;;3.40;1.17;;;;;;;13.47;53.40;102863.78;5495207;26;20283;-81
2024/04/11 08:40:10;;;;;;;1.50;1.03;;;;;;;13.34;53.17;102877.69;5490411;26;20233;-79
2024/04/11 08:42:36;;;;;;;3.23;1.13;;;;;;;13.46;53.78;102867.31;5493571;26;20244;-79
2024/04/11 08:45:08;;;;;;;2.47;1.30;;;;;;;13.53;53.79;102860.34;5494844;26;20260;-80
2024/04/11 08:47:34;;;;;;;2.43;1.10;;;;;;;13.48;54.23;102860.31;5494969;26;20338;-79
2024/04/11 08:50:05;;;;;;;3.77;1.50;;;;;;;13.56;54.06;102854.22;5496762;26;21048;-80
2024/04/11 08:52:34;;;;;;;3.27;1.33;;;;;;;13.56;52.66;102857.75;5496840;26;20279;-82
2024/04/11 08:55:03;;;;;;;3.63;1.50;;;;;;;13.45;52.75;102891.78;5511220;26;20277;-80
2024/04/11 08:57:29;;;;;;;4.00;1.47;;;;;;;13.59;53.02;102894.50;5468241;26;20232;-81
2024/04/11 08:59:58;;;;;;;2.70;1.27;;;;;;;13.46;53.03;102911.91;5495084;26;20236;-80
2024/04/11 09:02:26;;;;;;;2.13;1.30;;;;;;;13.56;54.54;102889.25;5494191;26;20233;-81
2024/04/11 09:04:54;;;;;;;2.53;1.10;;;;;;;13.69;54.07;102871.84;5496069;26;20252;-79
2024/04/11 09:07:21;;;;;;;3.10;1.40;;;;;;;13.72;54.10;102869.25;5496968;26;20608;-80
2024/04/11 09:09:50;;;;;;;2.00;1.47;;;;;;;13.66;53.19;102880.56;5493274;26;20236;-81
2024/04/11 09:12:16;;;;;;;2.77;1.20;;;;;;;13.78;54.57;102868.41;5490460;26;20259;-81
2024/04/11 09:14:45;;;;;;;4.00;1.60;;;;;;;13.73;54.28;102859.63;5478041;26;20273;-81
2024/04/11 09:17:13;;;;;;;3.23;1.27;;;;;;;13.72;54.36;102869.25;5492530;26;20233;-79
2024/04/11 09:19:45;;;;;;;1.40;1.10;;;;;;;13.82;54.39;102873.69;5494100;26;20288;-80
2024/04/11 09:22:13;;;;;;;4.10;1.63;;;;;;;13.83;54.24;102864.06;5493104;26;20272;-78
2024/04/11 09:24:41;;;;;;;2.20;1.43;;;;;;;13.80;53.77;102872.81;5495472;26;20274;-81
2024/04/11 09:27:07;;;;;;;2.10;1.60;;;;;;;13.87;53.88;102864.13;5494395;26;20240;-81
2024/04/11 09:29:36;;;;;;;1.37;1.10;;;;;;;14.01;54.58;102855.41;5497419;26;20279;-81
2024/04/11 09:32:03;;;;;;;2.60;1.30;;;;;;;14.15;55.16;102851.09;5481698;26;20275;-80
2024/04/11 09:34:32;;;;;;;2.60;1.17;;;;;;;14.16;54.16;102850.25;5483278;26;20306;-81
2024/04/11 09:37:04;;;;;;;2.57;1.20;;;;;;;14.12;54.69;102856.38;5493639;26;20267;-80
2024/04/11 09:39:49;;;;;;;3.00;1.73;;;;;;;14.16;54.53;102859.88;5498282;26;20236;-80
2024/04/11 09:42:18;;;;;;;2.87;1.33;;;;;;;14.25;54.96;102854.66;5497712;26;20309;-78
2024/04/11 09:44:47;;;;;;;2.43;1.30;;;;;;;14.35;55.64;102840.72;5490314;26;20231;-80
2024/04/11 09:47:14;;;;;;;2.53;0.97;;;;;;;14.41;55.51;102826.69;5493392;26;20316;-81
2024/04/11 09:49:43;;;;;;;1.60;1.10;;;;;;;14.44;55.24;102818.84;5479249;26;20727;-80
2024/04/11 09:52:15;;;;;;;2.37;1.20;;;;;;;14.41;56.62;102801.31;5492690;26;20278;-81
2024/04/11 09:54:44;;;;;;;2.37;1.20;;;;;;;14.41;57.12;102785.56;5497036;26;20247;-80
2024/04/11 09:57:12;;;;;;;2.87;1.40;;;;;;;14.38;58.48;102761.00;5499411;26;20233;-81
2024/04/11 09:59:42;;;;;;;4.10;1.70;;;;;;;14.43;58.21;102733.88;5467349;26;20251;-81
2024/04/11 10:02:09;;;;;;;3.13;1.30;;;;;;;14.32;58.45;102726.84;5464860;26;20237;-79
2024/04/11 10:04:42;;;;;;;2.73;1.17;;;;;;;14.34;59.21;102706.69;5469374;26;20263;-82
2024/04/11 10:07:12;;;;;;;2.80;1.53;;;;;;;14.30;57.34;102688.28;5485826;26;20233;-80
2024/04/11 10:09:49;;;;;;;2.07;1.20;;;;;;;14.34;58.42;102688.31;5464522;26;20241;-81
2024/04/11 10:12:19;;;;;;;2.10;1.07;;;;;;;14.12;57.11;102698.78;5480257;26;20765;-79
2024/04/11 10:14:51;;;;;;;4.20;1.50;;;;;;;14.23;58.30;102683.91;5487617;26;20228;-82
2024/04/11 10:17:17;;;;;;;5.83;1.30;;;;;;;14.43;59.16;102669.91;5484881;26;20306;-81
2024/04/11 10:19:47;;;;;;;3.50;1.43;;;;;;;14.44;58.37;102679.56;5497152;26;20317;-81
2024/04/11 10:22:24;;;;;;;3.10;1.23;;;;;;;14.40;57.46;102678.69;5500063;26;20276;-80
2024/04/11 10:24:53;;;;;;;4.63;1.33;;;;;;;14.52;57.91;102683.06;5500107;26;20272;-79
2024/04/11 10:27:29;;;;;;;1.87;1.00;;;;;;;14.65;58.56;102676.97;5498370;26;20229;-81
2024/04/11 10:30:05;;;;;;;2.23;0.93;;;;;;;14.70;60.00;102664.69;5499542;26;20228;-81
2024/04/11 10:32:35;;;;;;;3.53;1.10;;;;;;;14.57;57.79;102662.06;5494922;26;20335;-78
2024/04/11 10:35:03;;;;;;;3.67;1.10;;;;;;;14.35;58.44;102684.78;5478997;26;20734;-81
2024/04/11 10:37:33;;;;;;;4.03;1.67;;;;;;;14.22;57.96;102695.28;5492080;26;20279;-80
2024/04/11 10:40:02;;;;;;;2.77;1.37;;;;;;;14.50;59.30;102688.31;5493203;26;20237;-81
2024/04/11 10:42:36;;;;;;;4.53;1.33;;;;;;;14.63;58.75;102691.88;5475177;26;20263;-81
2024/04/11 10:45:07;;;;;;;2.43;1.37;;;;;;;14.71;59.12;102691.88;5458444;26;20271;-78
2024/04/11 10:47:35;;;;;;;3.23;1.20;;;;;;;14.67;58.22;102688.38;5476052;26;20288;-80
2024/04/11 10:50:09;;;;;;;2.43;1.10;;;;;;;14.92;59.33;102680.47;5490720;26;20252;-81
2024/04/11 10:52:37;;;;;;;2.60;1.60;;;;;;;15.07;60.02;102661.16;5491980;26;20237;-80
2024/04/11 10:55:12;;;;;;;3.87;1.40;;;;;;;15.18;59.38;102662.03;5490639;26;20269;-78
2024/04/11 10:57:40;;;;;;;5.17;1.80;;;;;;;15.21;60.34;102656.75;5495124;26;20287;-78
2024/04/11 11:00:11;;;;;;;2.03;1.10;;;;;;;15.00;57.34;102683.09;5494242;26;20831;-80
2024/04/11 11:02:37;;;;;;;1.83;0.93;;;;;;;15.04;58.56;102684.84;5495407;26;20283;-79
2024/04/11 11:05:08;;;;;;;5.70;1.20;;;;;;;14.91;57.78;102709.41;5488553;26;20275;-79
2024/04/11 11:07:35;;;;;;;2.80;1.30;;;;;;;15.02;58.12;102718.16;5472883;26;20233;-79
2024/04/11 11:10:11;;;;;;;3.87;1.77;;;;;;;15.12;57.12;102737.44;5463254;26;20241;-80
2024/04/11 11:12:37;;;;;;;2.80;1.50;;;;;;;15.25;56.76;102742.69;5459885;26;20234;-80
2024/04/11 11:15:06;;;;;;;3.37;1.50;;;;;;;15.22;57.92;102754.97;5457747;26;20299;-81
2024/04/11 11:17:34;;;;;;;2.30;1.17;;;;;;;15.29;57.98;102751.47;5492186;26;20731;-81
2024/04/11 11:20:09;;;;;;;1.97;1.17;;;;;;;15.26;57.44;102748.81;5494238;26;20321;-81
2024/04/11 11:22:40;;;;;;;2.83;1.43;;;;;;;15.38;58.46;102748.81;5493670;26;20673;-82
2024/04/11 11:25:11;;;;;;;2.17;1.40;;;;;;;15.30;57.47;102732.13;5498835;26;20726;-78
2024/04/11 11:27:38;;;;;;;2.20;1.57;;;;;;;15.27;57.93;102742.69;5499949;26;20285;-81
2024/04/11 11:30:15;;;;;;;5.60;1.60;;;;;;;15.08;59.15;102739.19;5489154;26;20238;-80
2024/04/11 11:32:41;;;;;;;2.57;1.53;;;;;;;15.16;58.42;102728.66;5491202;26;20872;-79
2024/04/11 11:35:11;;;;;;;2.23;1.60;;;;;;;15.18;58.82;102727.81;5476395;26;20234;-80